createdAt,value
2022-11-05T00:02:27.840Z,11.73
2022-11-05T00:05:13.544Z,10.70
2022-11-05T00:08:03.992Z,10.50
2022-11-05T00:10:32.019Z,10.43
2022-11-05T00:13:18.200Z,10.73
2022-11-05T00:16:04.337Z,11.25
2022-11-05T00:18:31.394Z,10.80
2022-11-05T00:20:58.099Z,10.70
2022-11-05T00:23:43.301Z,10.87
2022-11-05T00:26:12.993Z,11.10
2022-11-05T00:28:43.540Z,11.10
2022-11-05T00:31:14.216Z,10.60
2022-11-05T00:33:43.086Z,10.60
2022-11-05T00:36:10.688Z,11.10
2022-11-05T00:38:37.587Z,10.50
2022-11-05T00:41:04.583Z,10.40
2022-11-05T00:43:49.850Z,11.30
2022-11-05T00:46:16.564Z,10.52
2022-11-05T00:49:02.218Z,10.93
2022-11-05T00:51:28.918Z,10.63
2022-11-05T00:53:55.703Z,10.87
2022-11-05T00:56:22.419Z,10.60
2022-11-05T00:58:49.122Z,10.60
2022-11-05T01:01:16.015Z,10.85
2022-11-05T01:03:47.419Z,10.80
2022-11-05T01:06:18.211Z,11.20
2022-11-05T01:08:45.977Z,11.30
2022-11-05T01:11:33.845Z,11.30
2022-11-05T01:14:02.476Z,11.88
2022-11-05T01:16:29.695Z,10.88
2022-11-05T01:18:56.554Z,11.00
2022-11-05T01:21:23.341Z,10.98
2022-11-05T01:23:50.099Z,10.93
2022-11-05T01:26:16.889Z,11.43
2022-11-05T01:28:43.728Z,10.95
2022-11-05T01:31:10.524Z,10.70
2022-11-05T01:33:37.367Z,10.50
2022-11-05T01:36:05.302Z,10.82
2022-11-05T01:38:32.047Z,10.70
2022-11-05T01:40:58.787Z,11.00
2022-11-05T01:43:25.531Z,10.60
2022-11-05T01:45:57.610Z,10.70
2022-11-05T01:48:31.838Z,10.73
2022-11-05T01:51:07.042Z,11.00
2022-11-05T01:53:43.785Z,10.60
2022-11-05T01:56:22.135Z,10.80
2022-11-05T01:58:56.683Z,10.70
2022-11-05T02:01:23.850Z,11.07
2022-11-05T02:03:53.574Z,10.77
2022-11-05T02:06:21.362Z,10.50
2022-11-05T02:09:08.377Z,10.40
2022-11-05T02:11:35.166Z,10.63
2022-11-05T02:14:01.902Z,10.50
2022-11-05T02:16:43.279Z,10.70
2022-11-05T02:19:31.355Z,10.50
2022-11-05T02:22:07.602Z,10.60
2022-11-05T02:24:55.370Z,10.60
2022-11-05T02:27:40.791Z,10.40
2022-11-05T02:30:26.491Z,11.00
2022-11-05T02:33:11.039Z,10.93
2022-11-05T02:36:07.494Z,11.80
2022-11-05T02:38:34.172Z,10.40
2022-11-05T02:41:17.084Z,10.30
2022-11-05T02:44:22.766Z,11.50
2022-11-05T02:47:02.956Z,10.63
2022-11-05T02:49:47.080Z,10.40
2022-11-05T02:52:28.192Z,10.60
2022-11-05T02:55:05.954Z,10.70
2022-11-05T02:57:36.640Z,10.57
2022-11-05T03:00:28.660Z,11.20
2022-11-05T03:02:55.492Z,12.10
2022-11-05T03:05:29.857Z,10.50
2022-11-05T03:08:04.208Z,10.98
2022-11-05T03:11:23.766Z,10.40
2022-11-05T03:14:07.650Z,11.27
2022-11-05T03:16:49.548Z,10.50
2022-11-05T03:19:49.891Z,10.75
2022-11-05T03:22:24.386Z,10.90
2022-11-05T03:24:55.461Z,10.90
2022-11-05T03:27:29.095Z,10.40
2022-11-05T03:30:02.874Z,10.50
2022-11-05T03:32:35.454Z,10.50
2022-11-05T03:35:19.218Z,10.52
2022-11-05T03:37:49.260Z,11.68
2022-11-05T03:40:18.107Z,11.20
2022-11-05T03:42:49.735Z,10.70
2022-11-05T03:45:24.655Z,10.85
2022-11-05T03:47:54.704Z,11.20
2022-11-05T03:50:35.805Z,10.95
2022-11-05T03:53:13.517Z,10.65
2022-11-05T03:56:28.539Z,10.60
2022-11-05T03:58:59.087Z,10.80
2022-11-05T04:01:26.837Z,11.00
2022-11-05T04:03:53.787Z,10.50
2022-11-05T04:06:39.454Z,10.50
2022-11-05T04:09:24.755Z,11.20
2022-11-05T04:12:10.307Z,10.23
2022-11-05T04:14:37.066Z,10.23
2022-11-05T04:17:06.575Z,10.30
2022-11-05T04:19:53.402Z,10.30
2022-11-05T04:22:38.972Z,10.43
2022-11-05T04:25:05.932Z,10.20
2022-11-05T04:27:33.012Z,10.30
2022-11-05T04:30:18.266Z,10.60
2022-11-05T04:33:03.205Z,10.10
2022-11-05T04:35:31.783Z,10.30
2022-11-05T04:37:58.576Z,10.60
2022-11-05T04:40:25.702Z,10.50
2022-11-05T04:42:57.065Z,11.00
2022-11-05T04:45:25.590Z,10.50
2022-11-05T04:47:52.634Z,10.90
2022-11-05T04:50:19.463Z,10.15
2022-11-05T04:52:46.490Z,10.50
2022-11-05T04:55:13.319Z,10.60
2022-11-05T04:57:40.127Z,11.52
2022-11-05T05:00:08.443Z,11.00
2022-11-05T05:02:38.666Z,10.50
2022-11-05T05:05:05.942Z,10.32
2022-11-05T05:07:33.916Z,11.27
2022-11-05T05:10:06.459Z,10.20
2022-11-05T05:12:33.890Z,11.20
2022-11-05T05:15:02.199Z,11.27
2022-11-05T05:17:28.965Z,11.30
2022-11-05T05:20:14.003Z,10.20
2022-11-05T05:22:40.838Z,10.50
2022-11-05T05:25:07.900Z,10.53
2022-11-05T05:27:34.762Z,10.95
2022-11-05T05:30:01.957Z,10.60
2022-11-05T05:32:28.737Z,11.35
2022-11-05T05:34:55.528Z,10.60
2022-11-05T05:37:22.302Z,10.63
2022-11-05T05:39:49.735Z,11.23
2022-11-05T05:42:16.753Z,10.50
2022-11-05T05:44:43.495Z,10.65
2022-11-05T05:47:10.335Z,10.40
2022-11-05T05:49:37.065Z,10.80
2022-11-05T05:52:04.236Z,10.90
2022-11-05T05:54:34.173Z,10.32
2022-11-05T05:57:03.342Z,10.50
2022-11-05T05:59:30.112Z,10.40
2022-11-05T06:01:57.077Z,10.50
2022-11-05T06:04:23.994Z,10.55
2022-11-05T06:06:50.799Z,10.30
2022-11-05T06:09:17.526Z,10.50
2022-11-05T06:11:44.307Z,10.40
2022-11-05T06:14:12.419Z,11.20
2022-11-05T06:16:40.214Z,10.50
2022-11-05T06:19:07.758Z,11.40
2022-11-05T06:21:34.926Z,10.80
2022-11-05T06:24:02.901Z,10.90
2022-11-05T06:26:29.768Z,11.00
2022-11-05T06:28:56.638Z,10.50
2022-11-05T06:31:23.431Z,10.70
2022-11-05T06:33:50.217Z,10.40
2022-11-05T06:36:18.762Z,10.73
2022-11-05T06:38:45.673Z,10.90
2022-11-05T06:41:12.464Z,10.50
2022-11-05T06:43:39.647Z,10.85
2022-11-05T06:46:07.560Z,10.50
2022-11-05T06:48:34.889Z,11.40
2022-11-05T06:51:02.154Z,11.00
2022-11-05T06:53:31.531Z,11.00
2022-11-05T06:56:02.263Z,10.90
2022-11-05T06:58:29.432Z,11.23
2022-11-05T07:01:00.590Z,10.90
2022-11-05T07:03:27.359Z,11.10
2022-11-05T07:05:54.467Z,11.20
2022-11-05T07:08:21.175Z,11.20
2022-11-05T07:10:48.534Z,11.10
2022-11-05T07:13:15.860Z,11.40
2022-11-05T07:15:43.074Z,11.30
2022-11-05T07:18:09.896Z,11.98
2022-11-05T07:20:36.809Z,11.30
2022-11-05T07:23:05.766Z,13.40
2022-11-05T07:25:33.902Z,11.48
2022-11-05T07:28:01.686Z,11.80
2022-11-05T07:30:29.593Z,12.63
2022-11-05T07:32:56.824Z,12.00
2022-11-05T07:35:23.915Z,12.18
2022-11-05T07:37:53.958Z,13.23
2022-11-05T07:40:22.340Z,13.38
2022-11-05T07:42:55.095Z,13.35
2022-11-05T07:45:22.743Z,12.30
2022-11-05T07:47:55.264Z,13.63
2022-11-05T07:50:24.110Z,11.97
2022-11-05T07:52:51.398Z,11.90
2022-11-05T07:55:19.736Z,12.50
2022-11-05T07:57:48.836Z,12.20
2022-11-05T08:00:21.484Z,13.33
2022-11-05T08:03:13.239Z,13.40
2022-11-05T08:05:46.047Z,13.55
2022-11-05T08:08:17.567Z,12.10
2022-11-05T08:10:44.569Z,11.90
2022-11-05T08:13:12.150Z,12.30
2022-11-05T08:15:39.412Z,13.18
2022-11-05T08:18:08.795Z,12.75
2022-11-05T08:20:36.853Z,12.93
2022-11-05T08:23:03.609Z,11.85
2022-11-05T08:25:30.750Z,11.98
2022-11-05T08:28:03.538Z,12.00
2022-11-05T08:30:31.359Z,12.10
2022-11-05T08:33:04.283Z,12.68
2022-11-05T08:35:31.182Z,11.98
2022-11-05T08:38:00.505Z,12.13
2022-11-05T08:40:27.575Z,12.10
2022-11-05T08:42:57.328Z,12.10
2022-11-05T08:45:24.992Z,13.67
2022-11-05T08:47:57.830Z,13.18
2022-11-05T08:50:24.635Z,12.77
2022-11-05T08:52:51.354Z,12.20
2022-11-05T08:55:19.031Z,13.25
2022-11-05T08:57:46.283Z,12.50
2022-11-05T09:00:14.518Z,12.32
2022-11-05T09:02:41.782Z,12.68
2022-11-05T09:05:09.184Z,12.98
2022-11-05T09:07:37.983Z,13.15
2022-11-05T09:10:05.111Z,12.48
2022-11-05T09:12:31.831Z,12.98
2022-11-05T09:14:58.682Z,12.70
2022-11-05T09:17:25.684Z,14.38
2022-11-05T09:19:52.486Z,12.32
2022-11-05T09:22:19.219Z,12.80
2022-11-05T09:24:46.013Z,12.13
2022-11-05T09:27:14.707Z,12.20
2022-11-05T09:29:42.447Z,12.83
2022-11-05T09:32:09.415Z,13.13
2022-11-05T09:34:36.351Z,13.00
2022-11-05T09:37:03.215Z,12.77
2022-11-05T09:39:30.146Z,14.18
2022-11-05T09:42:02.522Z,13.02
2022-11-05T09:44:44.930Z,13.60
2022-11-05T09:47:19.011Z,12.80
2022-11-05T09:49:50.249Z,13.50
2022-11-05T09:52:27.107Z,12.60
2022-11-05T09:54:55.573Z,13.40
2022-11-05T09:57:28.158Z,13.13
2022-11-05T10:00:01.385Z,13.05
2022-11-05T10:02:33.550Z,14.07
2022-11-05T10:05:09.626Z,13.47
2022-11-05T10:07:50.685Z,12.50
2022-11-05T10:10:47.562Z,12.73
2022-11-05T10:13:37.890Z,12.50
2022-11-05T10:16:26.108Z,12.60
2022-11-05T10:19:15.904Z,13.40
2022-11-05T10:24:30.376Z,12.60
2022-11-05T10:26:58.494Z,13.90
2022-11-05T10:29:32.448Z,12.75
2022-11-05T10:32:03.060Z,13.60
2022-11-05T10:34:34.272Z,14.63
2022-11-05T10:37:01.406Z,13.55
2022-11-05T10:39:31.750Z,13.50
2022-11-05T10:42:24.799Z,14.00
2022-11-05T10:45:44.490Z,13.95
2022-11-05T10:48:26.379Z,13.02
2022-11-05T10:50:53.461Z,12.80
2022-11-05T10:53:25.882Z,12.50
2022-11-05T10:55:54.085Z,12.90
2022-11-05T10:58:25.679Z,12.57
2022-11-05T11:00:52.431Z,12.27
2022-11-05T11:03:47.941Z,12.98
2022-11-05T11:06:27.850Z,16.95
2022-11-05T11:08:59.212Z,14.90
2022-11-05T11:11:33.015Z,14.60
2022-11-05T11:14:19.579Z,14.35
2022-11-05T11:16:51.080Z,13.20
2022-11-05T11:19:21.171Z,13.43
2022-11-05T11:22:03.873Z,13.10
2022-11-05T11:24:37.274Z,13.30
2022-11-05T11:27:25.808Z,12.70
2022-11-05T11:29:58.711Z,14.53
2022-11-05T11:32:33.720Z,13.63
2022-11-05T11:35:01.210Z,13.17
2022-11-05T11:37:35.062Z,14.40
2022-11-05T11:40:19.140Z,13.50
2022-11-05T11:42:55.655Z,13.77
2022-11-05T11:45:32.635Z,12.77
2022-11-05T11:48:02.338Z,14.73
2022-11-05T11:50:36.938Z,13.20
2022-11-05T11:53:17.553Z,12.55
2022-11-05T11:56:14.448Z,13.35
2022-11-05T11:58:50.057Z,13.23
2022-11-05T12:01:35.509Z,13.20
2022-11-05T12:04:39.592Z,13.20
2022-11-05T12:07:24.396Z,14.20
2022-11-05T12:10:13.055Z,14.10
2022-11-05T12:12:48.656Z,14.00
2022-11-05T12:15:37.226Z,13.50
2022-11-05T12:18:08.130Z,12.95
2022-11-05T12:20:48.649Z,13.45
2022-11-05T12:23:38.026Z,12.77
2022-11-05T12:26:33.955Z,13.38
2022-11-05T12:29:18.789Z,13.15
2022-11-05T12:31:45.926Z,13.40
2022-11-05T12:34:46.670Z,13.43
2022-11-05T12:37:13.424Z,12.70
2022-11-05T12:40:02.990Z,14.10
2022-11-05T12:43:00.431Z,14.18
2022-11-05T12:45:45.326Z,13.07
2022-11-05T12:48:19.995Z,12.52
2022-11-05T12:51:02.252Z,12.70
2022-11-05T12:53:58.507Z,12.45
2022-11-05T12:56:38.287Z,12.43
2022-11-05T12:59:32.901Z,13.70
2022-11-05T13:02:22.315Z,13.60
2022-11-05T13:04:59.143Z,12.90
2022-11-05T13:07:31.574Z,12.52
2022-11-05T13:10:19.937Z,13.55
2022-11-05T13:13:06.422Z,13.18
2022-11-05T13:15:39.870Z,11.98
2022-11-05T13:18:13.483Z,13.15
2022-11-05T13:20:44.742Z,13.27
2022-11-05T13:23:14.658Z,12.57
2022-11-05T13:25:48.419Z,12.40
2022-11-05T13:28:26.968Z,13.88
2022-11-05T13:30:58.382Z,12.05
2022-11-05T13:33:33.572Z,12.90
2022-11-05T13:36:31.202Z,12.23
2022-11-05T13:39:24.335Z,13.70
2022-11-05T13:42:24.971Z,12.00
2022-11-05T13:45:20.499Z,12.50
2022-11-05T13:48:36.519Z,11.90
2022-11-05T13:51:28.503Z,12.60
2022-11-05T13:54:33.062Z,12.35
2022-11-05T13:57:34.310Z,12.60
2022-11-05T14:00:06.724Z,13.00
2022-11-05T14:02:53.906Z,11.70
2022-11-05T14:05:40.107Z,12.50
2022-11-05T14:08:16.103Z,13.30
2022-11-05T14:10:45.975Z,12.30
2022-11-05T14:13:34.202Z,11.52
2022-11-05T14:16:09.108Z,12.40
2022-11-05T14:18:42.594Z,13.30
2022-11-05T14:21:32.274Z,12.60
2022-11-05T14:24:21.655Z,13.30
2022-11-05T14:27:00.633Z,13.57
2022-11-05T14:29:37.884Z,13.50
2022-11-05T14:32:25.010Z,11.80
2022-11-05T14:35:11.376Z,11.90
2022-11-05T14:37:57.599Z,11.68
2022-11-05T14:40:30.791Z,11.50
2022-11-05T14:43:01.379Z,11.82
2022-11-05T14:45:28.167Z,12.60
2022-11-05T14:47:58.002Z,13.40
2022-11-05T14:50:39.536Z,12.30
2022-11-05T14:53:39.630Z,11.40
2022-11-05T14:56:10.703Z,12.60
2022-11-05T14:58:45.655Z,11.88
2022-11-05T15:01:15.470Z,11.63
2022-11-05T15:03:46.361Z,11.90
2022-11-05T15:06:31.205Z,12.00
2022-11-05T15:09:08.277Z,11.50
2022-11-05T15:11:52.795Z,12.00
2022-11-05T15:14:54.983Z,11.50
2022-11-05T15:17:38.996Z,12.35
2022-11-05T15:20:10.650Z,16.10
2022-11-05T15:22:43.691Z,14.20
2022-11-05T15:25:42.362Z,16.08
2022-11-05T15:28:26.871Z,16.17
2022-11-05T15:31:01.930Z,13.50
2022-11-05T15:33:29.336Z,12.60
2022-11-05T15:36:07.602Z,12.82
2022-11-05T15:38:35.035Z,12.60
2022-11-05T15:41:25.063Z,12.20
2022-11-05T15:43:54.730Z,13.77
2022-11-05T15:46:28.137Z,13.80
2022-11-05T15:49:14.242Z,13.10
2022-11-05T15:51:41.076Z,11.35
2022-11-05T15:54:36.035Z,12.18
2022-11-05T15:57:03.779Z,14.20
2022-11-05T15:59:31.239Z,13.23
2022-11-05T16:02:28.727Z,12.80
2022-11-05T16:04:57.008Z,14.48
2022-11-05T16:07:24.331Z,12.05
2022-11-05T16:09:59.871Z,11.98
2022-11-05T16:12:36.815Z,11.70
2022-11-05T16:15:09.599Z,13.40
2022-11-05T16:17:58.141Z,14.68
2022-11-05T16:20:32.288Z,13.95
2022-11-05T16:23:05.260Z,16.37
2022-11-05T16:25:40.558Z,14.70
2022-11-05T16:28:16.466Z,17.05
2022-11-05T16:30:58.980Z,14.00
2022-11-05T16:33:41.860Z,12.52
2022-11-05T16:36:08.847Z,13.30
2022-11-05T16:38:35.878Z,14.48
2022-11-05T16:41:02.864Z,15.88
2022-11-05T16:43:29.876Z,14.38
2022-11-05T16:46:00.850Z,15.07
2022-11-05T16:48:28.315Z,16.92
2022-11-05T16:50:55.059Z,15.90
2022-11-05T16:53:21.934Z,15.85
2022-11-05T16:55:49.314Z,21.45
2022-11-05T16:58:24.810Z,20.67
2022-11-05T17:01:02.674Z,23.63
2022-11-05T17:03:29.614Z,19.60
2022-11-05T17:05:56.300Z,17.98
2022-11-05T17:08:23.077Z,16.38
2022-11-05T17:10:49.792Z,16.35
2022-11-05T17:13:18.422Z,15.88
2022-11-05T17:15:47.254Z,16.50
2022-11-05T17:18:18.533Z,16.20
2022-11-05T17:20:51.119Z,14.90
2022-11-05T17:23:23.191Z,12.20
2022-11-05T17:25:52.791Z,13.18
2022-11-05T17:28:20.756Z,13.77
2022-11-05T17:30:52.308Z,14.63
2022-11-05T17:33:20.700Z,16.20
2022-11-05T17:35:47.606Z,17.10
2022-11-05T17:38:15.031Z,14.70
2022-11-05T17:40:42.139Z,13.70
2022-11-05T17:43:09.397Z,14.10
2022-11-05T17:45:45.466Z,15.00
2022-11-05T17:48:12.378Z,16.13
2022-11-05T17:50:43.839Z,14.70
2022-11-05T17:53:11.739Z,14.80
2022-11-05T17:55:44.288Z,13.93
2022-11-05T17:58:11.724Z,16.30
2022-11-05T18:00:39.980Z,20.15
2022-11-05T18:03:06.829Z,18.80
2022-11-05T18:05:34.899Z,19.08
2022-11-05T18:08:01.845Z,17.05
2022-11-05T18:10:28.590Z,14.90
2022-11-05T18:12:55.468Z,15.20
2022-11-05T18:15:22.416Z,14.50
2022-11-05T18:17:49.151Z,14.00
2022-11-05T18:20:19.122Z,14.68
2022-11-05T18:22:48.964Z,14.60
2022-11-05T18:25:16.147Z,15.85
2022-11-05T18:27:43.046Z,15.90
2022-11-05T18:30:11.038Z,14.60
2022-11-05T18:32:37.834Z,15.97
2022-11-05T18:35:04.994Z,23.08
2022-11-05T18:37:31.777Z,21.45
2022-11-05T18:39:58.507Z,17.93
2022-11-05T18:42:25.406Z,18.95
2022-11-05T18:44:52.376Z,16.50
2022-11-05T18:47:19.401Z,15.80
2022-11-05T18:49:46.094Z,16.15
2022-11-05T18:52:13.155Z,16.38
2022-11-05T18:54:39.994Z,15.75
2022-11-05T18:57:06.732Z,14.67
2022-11-05T18:59:39.148Z,15.63
2022-11-05T19:02:07.977Z,15.20
2022-11-05T19:04:36.708Z,14.80
2022-11-05T19:07:05.371Z,14.85
2022-11-05T19:09:34.290Z,14.82
2022-11-05T19:12:01.974Z,14.80
2022-11-05T19:14:30.110Z,14.60
2022-11-05T19:16:57.615Z,14.48
2022-11-05T19:19:24.406Z,14.60
2022-11-05T19:21:51.323Z,15.63
2022-11-05T19:24:18.180Z,16.95
2022-11-05T19:26:46.557Z,15.13
2022-11-05T19:29:13.330Z,15.50
2022-11-05T19:31:40.058Z,15.75
2022-11-05T19:34:06.797Z,18.98
2022-11-05T19:36:33.740Z,16.48
2022-11-05T19:39:04.411Z,14.70
2022-11-05T19:41:31.265Z,13.38
2022-11-05T19:43:59.432Z,14.85
2022-11-05T19:46:26.452Z,14.40
2022-11-05T19:48:53.243Z,13.63
2022-11-05T19:51:25.876Z,12.40
2022-11-05T19:53:53.519Z,14.35
2022-11-05T19:56:25.571Z,14.32
2022-11-05T19:58:53.315Z,14.73
2022-11-05T20:01:22.659Z,14.48
2022-11-05T20:03:50.488Z,12.77
2022-11-05T20:06:20.831Z,13.98
2022-11-05T20:09:15.181Z,13.98
2022-11-05T20:11:39.935Z,13.97
2022-11-05T20:14:08.223Z,14.40
2022-11-05T20:16:40.252Z,15.02
2022-11-05T20:19:11.294Z,14.70
2022-11-05T20:21:38.806Z,14.60
2022-11-05T20:24:06.006Z,13.68
2022-11-05T20:26:33.342Z,14.35
2022-11-05T20:29:00.692Z,13.50
2022-11-05T20:31:28.059Z,13.95
2022-11-05T20:33:54.976Z,13.52
2022-11-05T20:36:23.573Z,12.25
2022-11-05T20:38:52.802Z,14.67
2022-11-05T20:41:19.712Z,12.10
2022-11-05T20:43:47.950Z,15.60
2022-11-05T20:46:17.711Z,12.90
2022-11-05T20:48:44.503Z,11.68
2022-11-05T20:51:14.395Z,12.57
2022-11-05T20:53:41.694Z,13.00
2022-11-05T20:56:09.340Z,11.82
2022-11-05T20:58:37.690Z,12.85
2022-11-05T21:01:05.471Z,12.00
2022-11-05T21:03:32.322Z,11.82
2022-11-05T21:06:04.017Z,12.65
2022-11-05T21:08:30.890Z,13.07
2022-11-05T21:10:57.679Z,12.18
2022-11-05T21:13:24.999Z,12.10
2022-11-05T21:15:54.493Z,12.05
2022-11-05T21:18:24.636Z,12.25
2022-11-05T21:20:52.063Z,12.43
2022-11-05T21:23:19.122Z,11.93
2022-11-05T21:25:46.507Z,12.18
2022-11-05T21:28:14.898Z,12.10
2022-11-05T21:30:47.488Z,12.75
2022-11-05T21:33:16.015Z,11.80
2022-11-05T21:35:44.927Z,11.60
2022-11-05T21:38:13.592Z,11.52
2022-11-05T21:40:40.817Z,12.13
2022-11-05T21:43:08.073Z,11.90
2022-11-05T21:45:34.992Z,12.27
2022-11-05T21:48:02.330Z,12.50
2022-11-05T21:50:47.898Z,11.40
2022-11-05T21:53:34.055Z,12.40
2022-11-05T21:56:19.693Z,12.40
2022-11-05T21:59:04.980Z,12.32
2022-11-05T22:01:31.875Z,11.52
2022-11-05T22:04:02.892Z,11.50
2022-11-05T22:06:33.437Z,11.40
2022-11-05T22:09:00.384Z,11.98
2022-11-05T22:11:27.327Z,11.20
2022-11-05T22:13:54.060Z,12.20
2022-11-05T22:16:20.827Z,12.40
2022-11-05T22:18:47.686Z,12.53
2022-11-05T22:21:20.740Z,12.38
2022-11-05T22:23:47.518Z,13.35
2022-11-05T22:26:14.695Z,11.80
2022-11-05T22:28:41.484Z,11.90
2022-11-05T22:31:13.478Z,12.77
2022-11-05T22:33:40.322Z,13.68
2022-11-05T22:36:07.663Z,12.35
2022-11-05T22:38:34.803Z,13.07
2022-11-05T22:41:07.988Z,12.38
2022-11-05T22:43:34.947Z,11.88
2022-11-05T22:46:08.936Z,12.82
2022-11-05T22:48:36.775Z,11.60
2022-11-05T22:51:08.939Z,13.27
2022-11-05T22:53:36.823Z,12.82
2022-11-05T22:56:05.444Z,11.60
2022-11-05T22:58:32.830Z,12.50
2022-11-05T23:00:59.833Z,13.10
2022-11-05T23:03:27.925Z,12.90
2022-11-05T23:05:59.320Z,11.37
2022-11-05T23:09:01.678Z,11.50
2022-11-05T23:11:38.581Z,12.80
2022-11-05T23:14:07.859Z,12.98
2022-11-05T23:16:53.540Z,11.77
2022-11-05T23:19:39.483Z,12.27
2022-11-05T23:22:37.691Z,13.65
2022-11-05T23:25:06.551Z,14.20
2022-11-05T23:27:37.784Z,14.17
2022-11-05T23:30:12.184Z,12.50
2022-11-05T23:32:39.222Z,14.10
2022-11-05T23:35:06.701Z,12.93
2022-11-05T23:37:52.198Z,12.50
2022-11-05T23:40:25.196Z,11.80
2022-11-05T23:43:11.013Z,12.63
2022-11-05T23:45:55.166Z,12.60
2022-11-05T23:48:32.236Z,12.00
2022-11-05T23:51:03.926Z,13.38
2022-11-05T23:53:32.202Z,12.15
2022-11-05T23:56:06.033Z,12.48
2022-11-05T23:58:33.326Z,12.90
